Time;durP1;ratioP1;P1;durP2;ratioP2;P2;SDS_P1;SDS_P2;PMS_P1;PMS_P2;Temp;Humidity;BMP_temperature;BMP_pressure;BME280_temperature;BME280_humidity;BME280_pressure;Samples;Min_cycle;Max_cycle;Signal;HPM_P1;HPM_P2
2022/12/17 13:06:22;;;;;;;28.67;18.23;;;;;;;-0.78;69.46;99627.69;5113548;28;20101;-73
2022/12/17 13:09:06;;;;;;;30.08;19.92;;;;;;;0.55;68.56;99852.69;5113911;28;20117;-72
2022/12/17 13:11:38;;;;;;;32.83;19.83;;;;;;;0.53;69.22;99909.22;5114630;28;20040;-73
2022/12/17 13:14:22;;;;;;;33.28;21.45;;;;;;;0.53;69.06;99924.00;5114214;28;20127;-72
2022/12/17 13:16:54;;;;;;;29.35;21.30;;;;;;;-6.12;68.97;98744.19;5113603;28;20044;-72
2022/12/17 13:19:40;;;;;;;34.00;22.33;;;;;;;-0.84;68.57;99643.34;5097509;28;20063;-73
2022/12/17 13:22:25;;;;;;;31.10;20.85;;;;;;;-6.09;68.90;98754.50;5115254;28;20055;-73
2022/12/17 13:25:09;;;;;;;35.75;21.88;;;;;;;-6.92;68.85;98618.56;5114873;28;20036;-73
2022/12/17 13:27:40;;;;;;;28.90;18.80;;;;;;;0.51;70.29;99884.00;5114427;28;20048;-73
2022/12/17 13:30:23;;;;;;;30.85;19.60;;;;;;;-1.72;68.56;99514.50;5113386;28;20052;-73
2022/12/17 13:33:05;;;;;;;35.25;21.20;;;;;;;-4.59;68.76;99105.16;5113519;28;20050;-73
2022/12/17 13:35:42;;;;;;;32.38;20.42;;;;;;;0.54;69.45;99912.69;5114580;28;20061;-73
2022/12/17 13:38:25;;;;;;;34.03;21.33;;;;;;;-1.79;69.06;99799.47;5114539;28;20069;-73
2022/12/17 13:41:06;;;;;;;28.77;18.73;;;;;;;-5.28;68.15;98925.84;5115191;28;20032;-74
2022/12/17 13:43:38;;;;;;;32.50;20.98;;;;;;;0.55;69.44;99917.03;5112531;28;20048;-73
2022/12/17 13:46:05;;;;;;;31.25;19.38;;;;;;;0.55;69.44;99922.25;5113240;28;20040;-74
2022/12/17 13:48:32;;;;;;;28.20;19.50;;;;;;;0.56;69.42;99923.97;5111840;28;20107;-74
2022/12/17 13:51:04;;;;;;;30.77;20.83;;;;;;;0.54;69.33;99925.72;5111797;28;20044;-74
2022/12/17 13:53:34;;;;;;;33.55;21.10;;;;;;;0.54;69.32;99937.03;5113130;28;20058;-74
2022/12/17 13:56:03;;;;;;;30.02;20.90;;;;;;;-6.62;68.72;98787.84;5111307;28;20066;-72
2022/12/17 13:58:33;;;;;;;34.67;20.90;;;;;;;-2.65;69.17;99424.69;5095649;28;20046;-73
2022/12/17 14:01:06;;;;;;;29.95;19.25;;;;;;;-9.23;68.13;98299.53;5112907;28;20063;-73
2022/12/17 14:03:36;;;;;;;29.77;20.13;;;;;;;-6.24;69.20;98819.78;5112112;28;20226;-73
2022/12/17 14:06:09;;;;;;;30.17;20.55;;;;;;;-8.26;68.81;98526.19;5112747;28;20036;-73
2022/12/17 14:08:36;;;;;;;32.83;21.83;;;;;;;-6.32;68.89;98812.88;5112637;28;20046;-74
2022/12/17 14:13:51;;;;;;;33.03;21.60;;;;;;;-2.58;68.78;99481.78;5111763;28;20059;-74
2022/12/17 14:16:22;;;;;;;33.72;19.83;;;;;;;-6.16;68.59;98868.00;5112202;28;20058;-74
2022/12/17 14:18:52;;;;;;;27.42;19.42;;;;;;;-7.89;68.86;98637.00;5112584;28;20085;-74
2022/12/17 14:21:21;;;;;;;30.77;19.52;;;;;;;0.45;69.38;99993.56;5111849;28;20040;-73
2022/12/17 14:23:51;;;;;;;32.42;21.05;;;;;;;-6.58;68.69;98880.66;5111908;28;20035;-73
2022/12/17 14:26:23;;;;;;;29.75;20.23;;;;;;;-5.68;68.85;98967.94;5112698;28;20048;-74
2022/12/17 14:28:53;;;;;;;31.83;21.38;;;;;;;0.38;69.39;100007.50;5112229;28;20054;-74
2022/12/17 14:31:26;;;;;;;30.90;19.17;;;;;;;-1.48;68.98;99701.56;5109981;28;20123;-73
2022/12/17 14:34:06;;;;;;;29.50;20.95;;;;;;;0.38;69.48;100012.72;5111015;28;20048;-74
2022/12/17 14:36:34;;;;;;;28.02;19.30;;;;;;;0.38;69.61;100020.56;5109839;28;20056;-74
2022/12/17 14:39:10;;;;;;;32.38;20.73;;;;;;;0.37;69.50;100017.06;5110422;28;20043;-73
2022/12/17 14:44:26;;;;;;;26.63;20.25;;;;;;;-0.24;69.55;100016.34;5110499;28;20047;-74
2022/12/17 14:47:06;;;;;;;29.17;20.15;;;;;;;-2.13;69.46;99602.91;5110534;28;20036;-74
2022/12/17 14:49:33;;;;;;;32.10;21.33;;;;;;;-6.40;69.41;98980.44;5109682;28;20050;-73
2022/12/17 14:52:00;;;;;;;33.85;21.67;;;;;;;-0.39;69.84;99902.63;5108596;28;20047;-73
2022/12/17 14:54:30;;;;;;;27.65;20.92;;;;;;;-4.30;69.14;99262.16;5111045;28;20043;-73
2022/12/17 14:56:59;;;;;;;32.13;21.17;;;;;;;-3.83;69.49;99326.97;5108115;28;20047;-74
2022/12/17 14:59:32;;;;;;;32.30;20.52;;;;;;;0.31;69.75;100027.53;5109578;28;20046;-74
2022/12/17 15:02:03;;;;;;;30.88;21.63;;;;;;;-5.11;69.56;99393.59;5111262;28;20028;-74
2022/12/17 15:04:34;;;;;;;33.05;20.65;;;;;;;0.29;70.11;100031.88;5110565;28;20048;-74
2022/12/17 15:07:01;;;;;;;32.00;21.88;;;;;;;-6.88;69.40;98824.66;5093134;28;20056;-73
2022/12/17 15:09:27;;;;;;;33.83;22.75;;;;;;;-6.41;69.76;99084.44;5109744;28;20113;-74
2022/12/17 15:11:56;;;;;;;30.65;21.88;;;;;;;-2.93;70.33;99502.50;5110031;28;20047;-73
2022/12/17 15:14:24;;;;;;;34.10;22.10;;;;;;;0.25;70.65;100056.22;5093002;28;20040;-73
2022/12/17 15:16:51;;;;;;;33.85;22.30;;;;;;;0.25;70.80;100056.22;5092008;28;20040;-73
2022/12/17 15:19:17;;;;;;;36.58;23.55;;;;;;;0.25;70.65;100064.03;5108988;28;20048;-73
2022/12/17 15:21:44;;;;;;;34.95;22.50;;;;;;;0.23;70.73;100066.66;5108479;28;20055;-73
2022/12/17 15:24:20;;;;;;;38.55;22.98;;;;;;;-1.30;70.48;99928.66;5107896;28;20079;-72
2022/12/17 15:26:47;;;;;;;36.03;22.15;;;;;;;-4.76;70.56;99692.94;5107778;28;20036;-72
2022/12/17 15:29:14;;;;;;;32.85;22.88;;;;;;;-1.40;70.80;99850.63;5108672;28;20044;-72
2022/12/17 15:31:43;;;;;;;37.25;24.20;;;;;;;0.22;71.02;100074.47;5109112;28;20047;-72
2022/12/17 15:34:12;;;;;;;36.60;23.13;;;;;;;-0.57;71.13;99944.34;5107116;28;20079;-72
2022/12/17 15:36:39;;;;;;;37.17;24.08;;;;;;;0.20;71.22;100086.66;5108066;28;20055;-72
2022/12/17 15:39:07;;;;;;;38.55;25.35;;;;;;;0.19;71.18;100090.13;5108259;28;20192;-72
2022/12/17 15:44:18;;;;;;;33.35;21.90;;;;;;;0.13;71.24;100100.56;5107728;28;20089;-73
2022/12/17 15:46:47;;;;;;;33.28;21.65;;;;;;;-0.64;71.23;99973.84;5108338;28;20238;-73
2022/12/17 15:49:15;;;;;;;31.70;20.85;;;;;;;-0.31;71.08;100040.66;5108185;28;20098;-72
2022/12/17 15:51:42;;;;;;;29.95;20.65;;;;;;;-0.47;70.78;100030.25;5092265;28;20103;-72
2022/12/17 15:54:09;;;;;;;31.63;19.00;;;;;;;0.06;70.94;100130.09;5108482;28;20058;-72
2022/12/17 15:56:37;;;;;;;32.67;21.25;;;;;;;0.03;70.60;100111.88;5106559;28;20070;-72
2022/12/17 15:59:05;;;;;;;30.67;20.17;;;;;;;-11.63;69.77;98157.19;5108258;28;20078;-72
2022/12/17 16:01:34;;;;;;;29.40;20.40;;;;;;;-1.70;70.54;99835.88;5108701;28;20111;-72
2022/12/17 16:04:02;;;;;;;28.35;18.98;;;;;;;-0.04;70.62;100127.50;5106312;28;20047;-72
2022/12/17 16:06:29;;;;;;;25.77;18.48;;;;;;;-4.62;70.05;99348.25;5108153;28;20044;-72
2022/12/17 16:08:56;;;;;;;29.13;17.58;;;;;;;-0.07;70.08;100126.63;5111514;28;20268;-72
2022/12/17 16:11:24;;;;;;;25.63;16.48;;;;;;;-0.98;69.91;99975.56;5095431;28;20044;-72
2022/12/17 16:13:54;;;;;;;23.42;16.40;;;;;;;-2.64;69.47;99717.03;5111763;28;20046;-72
2022/12/17 16:16:23;;;;;;;23.75;16.73;;;;;;;-0.21;69.55;100138.78;5111723;28;20039;-73
2022/12/17 16:18:51;;;;;;;21.33;14.70;;;;;;;-0.22;69.98;100155.28;5078421;28;20070;-72
2022/12/17 16:21:21;;;;;;;23.50;15.00;;;;;;;-1.34;69.74;99961.59;5111615;28;20093;-72
2022/12/17 16:23:48;;;;;;;24.60;15.60;;;;;;;-1.38;70.00;99955.50;5111551;28;20280;-73
2022/12/17 16:26:15;;;;;;;21.02;15.27;;;;;;;-0.28;69.71;100161.34;5094966;28;20036;-73
2022/12/17 16:28:45;;;;;;;21.55;14.70;;;;;;;-1.71;69.91;99927.69;5112475;28;20304;-73
2022/12/17 16:31:15;;;;;;;22.33;15.70;;;;;;;-0.27;70.46;100172.66;5095497;28;20055;-73
2022/12/17 16:33:46;;;;;;;21.38;14.23;;;;;;;-0.29;69.90;100167.44;5111566;28;20047;-73
2022/12/17 16:36:16;;;;;;;20.27;12.98;;;;;;;-1.40;69.98;99985.84;5113465;28;20048;-73
2022/12/17 16:38:47;;;;;;;22.48;14.68;;;;;;;-0.33;69.56;100165.69;5112227;28;20086;-73
2022/12/17 16:41:15;;;;;;;20.70;13.93;;;;;;;-0.32;69.67;100309.81;5112469;28;20123;-72
2022/12/17 16:43:43;;;;;;;19.67;13.57;;;;;;;-4.07;69.02;99588.34;5095580;28;20036;-72
2022/12/17 16:46:28;;;;;;;20.75;13.50;;;;;;;-11.30;67.79;98323.03;5113451;28;20145;-73
2022/12/17 16:48:55;;;;;;;;;;;;;;;-0.47;68.00;100172.59;5095826;28;20067;-73
2022/12/17 16:51:25;;;;;;;18.23;12.70;;;;;;;-2.24;69.38;99874.66;5095277;28;19916;-73
2022/12/17 16:53:54;;;;;;;21.92;13.30;;;;;;;-12.40;68.47;98148.41;5112788;28;20032;-72
2022/12/17 16:56:23;;;;;;;17.10;11.77;;;;;;;-0.47;69.07;100189.09;5112671;28;20039;-72
2022/12/17 16:58:51;;;;;;;18.52;12.43;;;;;;;-0.44;69.65;100196.06;5113558;28;20040;-72
2022/12/17 17:01:20;;;;;;;18.85;12.48;;;;;;;-0.44;69.52;100188.25;5112744;28;20036;-73
2022/12/17 17:03:48;;;;;;;15.45;11.98;;;;;;;-2.69;69.09;99806.09;5113799;28;20047;-73
2022/12/17 17:06:16;;;;;;;19.55;12.63;;;;;;;-0.47;69.18;100196.91;5113558;28;20032;-73
2022/12/17 17:08:47;;;;;;;19.00;12.73;;;;;;;-8.31;68.41;99347.00;5095990;28;20050;-73
2022/12/17 17:11:18;;;;;;;16.95;11.85;;;;;;;-1.87;68.68;99964.88;5112312;28;20048;-72
2022/12/17 17:13:46;;;;;;;16.40;12.27;;;;;;;-0.56;69.03;100194.28;5111754;28;20048;-73
2022/12/17 17:16:13;;;;;;;16.77;10.80;;;;;;;-0.54;69.13;100202.97;5111843;28;20040;-73
2022/12/17 17:18:43;;;;;;;18.27;11.93;;;;;;;-0.52;69.25;100213.41;5093959;28;20040;-73
2022/12/17 17:21:34;;;;;;;19.58;12.43;;;;;;;-7.83;68.37;99008.34;5113126;28;20039;-73
2022/12/17 17:24:05;;;;;;;18.52;13.05;;;;;;;-0.56;69.19;100214.25;5107889;28;20150;-73
2022/12/17 17:26:34;;;;;;;16.13;11.23;;;;;;;-0.57;68.94;100222.94;5096123;28;20036;-73
2022/12/17 17:29:02;;;;;;;18.17;11.38;;;;;;;-2.08;69.04;99977.75;5113125;28;20247;-73
2022/12/17 17:31:30;;;;;;;19.38;11.93;;;;;;;-0.59;69.17;100306.22;5113282;28;20036;-73
2022/12/17 17:34:06;;;;;;;16.75;11.98;;;;;;;-2.46;69.17;99912.63;5112453;28;21991;-74
2022/12/17 17:36:34;;;;;;;18.15;12.32;;;;;;;-0.61;69.34;100248.06;5112624;28;20048;-73
2022/12/17 17:39:01;;;;;;;16.50;11.20;;;;;;;-2.47;69.19;99927.31;5111120;28;20332;-73
2022/12/17 17:41:30;;;;;;;17.52;11.95;;;;;;;-4.57;69.38;99763.00;5112007;28;20054;-73
2022/12/17 17:44:00;;;;;;;18.27;12.90;;;;;;;-0.59;69.34;100242.88;5112001;28;20048;-73
2022/12/17 17:46:29;;;;;;;16.63;12.15;;;;;;;-0.60;69.40;100248.94;5111998;28;20040;-72
2022/12/17 17:49:00;;;;;;;22.05;14.00;;;;;;;-2.52;69.08;99975.72;5111962;28;20036;-73
2022/12/17 17:51:31;;;;;;;17.70;13.95;;;;;;;-0.58;69.47;100286.28;5112189;28;20058;-73
2022/12/17 17:54:01;;;;;;;21.65;15.32;;;;;;;-2.14;69.24;99998.50;5111806;28;20040;-73
2022/12/17 17:56:31;;;;;;;18.70;12.88;;;;;;;-8.28;68.86;98959.75;5111871;28;20058;-73
2022/12/17 17:59:02;;;;;;;19.15;13.43;;;;;;;-3.85;69.10;99722.31;5111488;28;20111;-73
2022/12/17 18:01:32;;;;;;;20.08;13.57;;;;;;;-0.59;69.60;100342.69;5111337;28;20107;-73
2022/12/17 18:04:01;;;;;;;21.75;13.27;;;;;;;-0.59;69.23;100354.84;5111549;28;20042;-73
2022/12/17 18:06:29;;;;;;;20.70;13.75;;;;;;;-0.59;69.47;100295.81;5112104;28;20036;-73
2022/12/17 18:09:00;;;;;;;19.90;12.88;;;;;;;-8.02;69.05;99032.09;5112910;28;20050;-74
2022/12/17 18:11:30;;;;;;;17.60;12.43;;;;;;;-8.43;69.14;98964.69;5095356;28;20036;-73
2022/12/17 18:14:02;;;;;;;18.50;12.82;;;;;;;-1.25;69.67;100185.28;5094892;28;20055;-73
2022/12/17 18:16:31;;;;;;;16.45;12.38;;;;;;;-6.17;69.01;99341.78;5111707;28;20044;-73
2022/12/17 18:19:01;;;;;;;17.55;11.77;;;;;;;-0.54;69.45;100301.06;5111834;28;20051;-72
2022/12/17 18:21:30;;;;;;;22.27;13.52;;;;;;;-0.53;69.47;100305.41;5112069;28;20108;-73
2022/12/17 18:23:58;;;;;;;19.60;13.30;;;;;;;-8.41;68.69;98967.28;5110707;28;20073;-73
2022/12/17 18:26:26;;;;;;;18.15;12.65;;;;;;;-0.57;69.55;100314.94;5111639;28;20040;-73
2022/12/17 18:28:53;;;;;;;19.55;13.25;;;;;;;-7.92;69.06;99059.66;5111131;28;20123;-73
2022/12/17 18:31:26;;;;;;;21.05;13.90;;;;;;;-7.87;68.87;99073.44;5110123;28;20123;-73
2022/12/17 18:33:56;;;;;;;18.90;12.98;;;;;;;-9.91;68.98;99002.34;5111649;28;20055;-73
2022/12/17 18:36:26;;;;;;;18.98;13.35;;;;;;;-6.96;69.05;99228.25;5094620;28;20044;-74
2022/12/17 18:38:57;;;;;;;18.95;13.45;;;;;;;-7.91;69.04;99069.09;5110789;28;20044;-73
2022/12/17 18:44:09;;;;;;;17.77;12.60;;;;;;;-0.51;69.60;100338.38;5111602;28;20048;-73
2022/12/17 18:46:38;;;;;;;22.38;13.73;;;;;;;-6.92;68.90;99242.91;5093752;28;20044;-73
2022/12/17 18:49:07;;;;;;;20.80;13.73;;;;;;;-0.51;69.39;100403.50;5111960;28;20039;-73
2022/12/17 18:51:39;;;;;;;18.63;13.68;;;;;;;-0.51;70.04;100354.03;5110496;28;20110;-73
2022/12/17 18:54:07;;;;;;;18.50;12.40;;;;;;;-1.83;69.51;100119.91;5110051;28;20120;-72
2022/12/17 18:56:37;;;;;;;18.08;13.07;;;;;;;-0.49;69.59;100354.91;5111787;28;20054;-73
2022/12/17 18:59:06;;;;;;;18.52;12.65;;;;;;;-1.14;69.37;100266.84;5111432;28;20044;-73
2022/12/17 19:01:35;;;;;;;19.10;13.35;;;;;;;-0.52;69.17;100360.09;5111504;28;20077;-73
2022/12/17 19:04:05;;;;;;;17.73;11.52;;;;;;;-0.52;69.45;100361.81;5110943;28;20036;-74
2022/12/17 19:06:33;;;;;;;19.15;13.65;;;;;;;-2.28;69.42;100104.00;5094470;28;20040;-73
2022/12/17 19:09:04;;;;;;;16.50;11.18;;;;;;;-1.12;69.28;100530.50;5109863;28;20062;-74
2022/12/17 19:11:35;;;;;;;19.58;12.68;;;;;;;-1.14;69.52;100265.97;5112188;28;20089;-74
2022/12/17 19:14:03;;;;;;;18.00;13.00;;;;;;;-0.50;69.53;100384.41;5111945;28;20058;-74
2022/12/17 19:16:32;;;;;;;17.25;12.38;;;;;;;-2.36;69.18;100291.72;5111391;28;20119;-73
2022/12/17 19:19:01;;;;;;;18.35;12.60;;;;;;;-2.39;69.01;100070.16;5110186;28;20044;-73
2022/12/17 19:21:34;;;;;;;19.63;12.30;;;;;;;-6.65;68.45;99347.16;5110829;28;20066;-73
2022/12/17 19:24:04;;;;;;;18.08;12.20;;;;;;;-0.55;69.37;100393.91;5110534;28;20044;-73
2022/12/17 19:26:32;;;;;;;21.17;13.65;;;;;;;-4.65;69.27;99798.25;5109785;28;20114;-73
2022/12/17 19:29:01;;;;;;;18.55;12.32;;;;;;;-3.04;69.04;99977.91;5111243;28;20109;-74
2022/12/17 19:31:32;;;;;;;18.25;12.00;;;;;;;-0.58;69.18;100413.88;5092167;28;20031;-72
2022/12/17 19:34:02;;;;;;;17.45;12.68;;;;;;;-1.19;69.13;100351.78;5110210;28;20050;-71
2022/12/17 19:36:33;;;;;;;17.55;12.55;;;;;;;-4.30;68.80;99805.56;5076797;28;20050;-72
2022/12/17 19:39:04;;;;;;;16.38;12.75;;;;;;;-2.67;69.19;100167.63;5108864;28;20050;-72
2022/12/17 19:41:32;;;;;;;14.90;11.10;;;;;;;-0.59;69.09;100415.59;5108577;28;20036;-72
2022/12/17 19:44:02;;;;;;;18.05;12.02;;;;;;;-0.58;69.23;100411.25;5112145;28;20043;-72
2022/12/17 19:46:31;;;;;;;26.20;15.75;;;;;;;-0.55;69.42;100417.34;5111177;28;20048;-72
2022/12/17 19:49:01;;;;;;;19.65;13.38;;;;;;;-6.00;68.81;99544.09;5113823;28;20042;-73
2022/12/17 19:51:30;;;;;;;15.35;10.48;;;;;;;-0.53;69.13;100422.56;5112707;28;20268;-71
2022/12/17 19:54:00;;;;;;;13.25;10.10;;;;;;;-3.43;68.21;99959.34;5112384;28;20052;-72
2022/12/17 19:56:28;;;;;;;15.80;10.30;;;;;;;-0.89;68.92;100365.91;5112460;28;20044;-72
2022/12/17 19:58:59;;;;;;;13.82;9.95;;;;;;;-0.63;69.10;100410.34;5110802;28;20040;-72
2022/12/17 20:01:30;;;;;;;14.63;10.65;;;;;;;-1.55;68.93;100260.47;5112606;28;20107;-73
2022/12/17 20:03:58;;;;;;;14.40;10.07;;;;;;;-3.89;68.79;99862.97;5112281;28;20032;-72
2022/12/17 20:06:27;;;;;;;16.85;10.80;;;;;;;-0.59;68.92;100431.22;5111391;28;20036;-72
2022/12/17 20:08:55;;;;;;;15.40;10.93;;;;;;;-0.58;69.10;100432.09;5112785;28;20047;-72
2022/12/17 20:11:33;;;;;;;15.27;11.18;;;;;;;-1.18;68.95;100337.91;5111598;28;20066;-74
2022/12/17 20:14:03;;;;;;;13.57;9.93;;;;;;;-0.59;69.09;100431.22;5095178;28;20204;-72
2022/12/17 20:16:34;;;;;;;12.48;9.38;;;;;;;-0.59;69.13;100439.03;5094964;28;20036;-72
2022/12/17 20:19:03;;;;;;;14.00;9.18;;;;;;;-2.54;68.83;100140.09;5112769;28;20051;-72
2022/12/17 20:21:30;;;;;;;14.90;10.35;;;;;;;-0.58;68.91;100453.78;5112442;28;20032;-72
2022/12/17 20:23:57;;;;;;;12.63;10.10;;;;;;;-0.57;68.87;100449.47;5111619;28;20036;-72
2022/12/17 20:26:26;;;;;;;15.98;10.07;;;;;;;-0.57;68.79;100460.75;5110270;28;20101;-73
2022/12/17 20:28:55;;;;;;;14.10;10.65;;;;;;;-1.98;68.67;100214.19;5110805;28;20109;-72
2022/12/17 20:31:25;;;;;;;15.30;9.52;;;;;;;-2.19;68.68;100187.16;5111394;28;20043;-73
2022/12/17 20:33:52;;;;;;;14.32;9.45;;;;;;;-0.55;68.78;100461.63;5093855;28;20051;-72
2022/12/17 20:36:22;;;;;;;14.90;10.32;;;;;;;-2.25;68.61;100174.13;5111048;28;20075;-72
2022/12/17 20:38:49;;;;;;;14.40;10.18;;;;;;;-1.66;68.70;100278.59;5093611;28;20286;-71
2022/12/17 20:41:19;;;;;;;14.02;10.27;;;;;;;-7.97;67.84;99199.34;5093594;28;20044;-71
2022/12/17 20:43:48;;;;;;;12.05;8.52;;;;;;;-0.81;68.33;100434.53;5109812;28;20050;-72
2022/12/17 20:46:17;;;;;;;12.95;8.85;;;;;;;-0.61;68.34;100476.34;5112332;28;20032;-72
2022/12/17 20:48:45;;;;;;;11.50;8.05;;;;;;;-2.38;68.31;100181.78;5110095;28;20070;-72
2022/12/17 20:51:14;;;;;;;13.68;8.55;;;;;;;-0.58;68.41;100490.25;5109966;28;20082;-72
2022/12/17 20:53:42;;;;;;;13.38;9.02;;;;;;;-0.57;68.41;100502.41;5092375;28;20085;-72
2022/12/17 20:56:12;;;;;;;12.38;8.95;;;;;;;-0.57;68.26;100484.19;5111075;28;20292;-72
2022/12/17 20:58:40;;;;;;;13.23;9.27;;;;;;;-1.59;68.33;100316.78;5110716;28;20040;-72
2022/12/17 21:01:17;;;;;;;11.63;7.90;;;;;;;-0.60;67.88;100486.75;5109918;28;20044;-72
2022/12/17 21:03:44;;;;;;;9.35;7.40;;;;;;;-0.60;67.76;100491.97;5109964;28;20036;-70
2022/12/17 21:06:14;;;;;;;11.25;8.38;;;;;;;-1.81;67.99;100318.28;5109687;28;20040;-71
2022/12/17 21:08:43;;;;;;;10.80;7.68;;;;;;;-0.60;68.05;100489.34;5109378;28;20036;-72
2022/12/17 21:11:15;;;;;;;11.90;8.50;;;;;;;-1.19;67.77;100384.72;5111816;28;20055;-72
2022/12/17 21:13:43;;;;;;;12.25;8.85;;;;;;;-2.01;67.93;100254.88;5109354;28;20036;-72
2022/12/17 21:16:14;;;;;;;13.60;7.90;;;;;;;-0.73;67.99;100482.31;5110925;28;20356;-72
2022/12/17 21:18:41;;;;;;;11.68;7.88;;;;;;;-3.23;68.05;100066.72;5095216;28;20221;-72
2022/12/17 21:21:11;;;;;;;10.48;7.65;;;;;;;-0.57;67.93;100506.75;5111208;28;20039;-73
2022/12/17 21:23:39;;;;;;;11.10;7.93;;;;;;;-0.75;68.06;100492.72;5109976;28;20051;-72
2022/12/17 21:26:08;;;;;;;10.90;8.05;;;;;;;-0.58;68.09;100521.50;5108974;28;20032;-71
2022/12/17 21:28:37;;;;;;;10.32;8.13;;;;;;;-4.08;67.76;99928.34;5110086;28;20035;-72
2022/12/17 21:31:05;;;;;;;10.93;7.93;;;;;;;-0.55;68.06;100528.47;5109918;28;20093;-72
2022/12/17 21:33:33;;;;;;;9.70;7.32;;;;;;;-0.59;67.71;100519.75;5109772;28;20127;-72
2022/12/17 21:36:02;;;;;;;11.18;7.85;;;;;;;-0.59;67.96;100527.56;5109947;28;20046;-73
2022/12/17 21:38:29;;;;;;;16.52;9.98;;;;;;;-2.00;68.21;100285.19;5111324;28;20126;-73
2022/12/17 21:40:56;;;;;;;12.10;9.32;;;;;;;-0.53;69.03;100530.22;5110551;28;20036;-73
2022/12/17 21:43:23;;;;;;;10.90;8.05;;;;;;;-2.92;68.61;100168.22;5110760;28;20219;-72
2022/12/17 21:45:56;;;;;;;11.82;9.07;;;;;;;-0.48;68.22;100531.13;5112198;28;20036;-72
2022/12/17 21:48:24;;;;;;;9.27;7.38;;;;;;;-2.26;68.08;100220.00;5109965;28;20136;-73
2022/12/17 21:50:53;;;;;;;10.57;8.00;;;;;;;-2.97;67.45;100099.00;5112112;28;20052;-74
2022/12/17 21:53:20;;;;;;;13.35;7.75;;;;;;;-0.50;67.61;100526.75;5111874;28;20051;-73
2022/12/17 21:55:48;;;;;;;10.20;7.40;;;;;;;-2.01;67.42;100608.19;5111605;28;20284;-73
2022/12/17 21:58:15;;;;;;;10.07;7.63;;;;;;;-0.51;67.59;100543.25;5110388;28;20112;-73
2022/12/17 22:00:43;;;;;;;12.25;7.82;;;;;;;-4.13;67.40;99969.69;5110083;28;20042;-73
2022/12/17 22:03:10;;;;;;;12.65;7.53;;;;;;;-1.52;67.38;100370.56;5110286;28;20051;-72
2022/12/17 22:05:37;;;;;;;12.25;8.25;;;;;;;-2.30;67.20;100241.59;5108128;28;20093;-72
2022/12/17 22:08:06;;;;;;;11.82;7.55;;;;;;;-1.97;67.24;100306.88;5109131;28;20266;-72
2022/12/17 22:10:33;;;;;;;9.90;7.85;;;;;;;-0.54;67.71;100538.00;5111603;28;20036;-72
2022/12/17 22:15:44;;;;;;;12.23;7.63;;;;;;;-1.26;67.36;100429.75;5109731;28;20062;-72
2022/12/17 22:18:11;;;;;;;10.77;7.40;;;;;;;-2.44;67.46;100228.47;5109191;28;20371;-72
2022/12/17 22:20:37;;;;;;;11.95;6.72;;;;;;;-0.56;67.52;100551.03;5110308;28;20056;-72
2022/12/17 22:23:07;;;;;;;8.88;6.50;;;;;;;-0.54;67.35;100556.25;5109645;28;20097;-72
2022/12/17 22:25:37;;;;;;;10.95;7.82;;;;;;;-1.26;67.41;100433.22;5108927;28;20056;-72
2022/12/17 22:28:04;;;;;;;10.75;7.25;;;;;;;-2.43;67.49;100232.78;5108917;28;20044;-72
2022/12/17 22:33:15;;;;;;;10.10;7.43;;;;;;;-0.56;67.29;100560.56;5108741;28;20251;-71
2022/12/17 22:35:42;;;;;;;9.32;6.38;;;;;;;-11.40;66.53;98764.47;5107128;28;20040;-71
2022/12/17 22:38:14;;;;;;;8.20;6.60;;;;;;;-0.56;67.31;100561.44;5109728;28;20111;-72
2022/12/17 22:40:41;;;;;;;10.65;6.68;;;;;;;-1.12;67.42;100468.06;5092337;28;20105;-71
2022/12/17 22:46:01;;;;;;;11.75;8.15;;;;;;;-1.15;66.93;100472.34;5108777;28;20047;-70
2022/12/17 22:48:28;;;;;;;11.50;7.15;;;;;;;-3.13;66.87;100123.00;5109546;28;20040;-71
2022/12/17 22:51:02;;;;;;;11.20;7.00;;;;;;;-0.57;67.39;100562.31;5109458;28;20055;-72
2022/12/17 22:53:31;;;;;;;10.20;7.40;;;;;;;-0.55;67.22;100571.00;5108733;28;20040;-71
2022/12/17 22:56:04;;;;;;;10.75;7.35;;;;;;;-0.56;66.91;100576.19;5108687;28;20040;-71
2022/12/17 22:58:31;;;;;;;9.93;7.25;;;;;;;-0.56;67.22;100571.84;5108281;28;20048;-71
2022/12/17 23:00:59;;;;;;;12.65;7.65;;;;;;;-0.57;67.06;100585.72;5109472;28;20049;-71
2022/12/17 23:03:26;;;;;;;9.52;7.00;;;;;;;-1.92;67.02;100334.63;5111413;28;20040;-72
2022/12/17 23:05:53;;;;;;;9.35;7.18;;;;;;;-0.56;67.20;100576.19;5089611;28;20107;-72
2022/12/17 23:08:19;;;;;;;11.85;8.18;;;;;;;-0.57;67.11;100577.06;5108418;28;20079;-71
2022/12/17 23:10:47;;;;;;;11.65;7.68;;;;;;;-0.56;67.26;100581.41;5106184;28;20044;-71
2022/12/17 23:13:14;;;;;;;11.57;8.55;;;;;;;-0.58;66.92;100583.13;5107470;28;20299;-72
2022/12/17 23:15:41;;;;;;;10.38;7.93;;;;;;;-0.57;67.11;100584.84;5108881;28;20193;-72
2022/12/17 23:18:08;;;;;;;13.13;9.27;;;;;;;-0.58;67.04;100584.00;5107710;28;20079;-72
2022/12/17 23:20:35;;;;;;;13.60;9.27;;;;;;;-0.58;67.13;100584.00;5089871;28;20043;-72
2022/12/17 23:23:04;;;;;;;13.98;9.07;;;;;;;-1.34;67.06;100476.50;5108303;28;20063;-72
2022/12/17 23:25:32;;;;;;;13.82;7.82;;;;;;;-5.43;66.64;99764.38;5107688;28;20063;-72
2022/12/17 23:28:05;;;;;;;9.65;7.05;;;;;;;-1.30;67.14;100496.47;5109837;28;20036;-72
2022/12/17 23:30:32;;;;;;;9.10;6.65;;;;;;;-2.74;67.04;100257.50;5109628;28;20120;-72
2022/12/17 23:32:59;;;;;;;10.25;8.13;;;;;;;-0.58;67.26;100597.00;5109766;28;20044;-72
2022/12/17 23:35:28;;;;;;;9.48;7.60;;;;;;;-2.45;66.88;100283.81;5109212;28;20044;-72
2022/12/17 23:37:55;;;;;;;11.25;7.97;;;;;;;-2.03;67.17;100417.63;5108449;28;20105;-72
2022/12/17 23:40:22;;;;;;;13.13;8.82;;;;;;;-9.24;66.54;99129.34;5093016;28;20032;-71
2022/12/17 23:42:49;;;;;;;13.20;8.82;;;;;;;-2.77;66.95;100243.63;5109600;28;20051;-72
2022/12/17 23:45:18;;;;;;;17.45;11.00;;;;;;;-0.62;67.02;100610.84;5109386;28;20055;-72
2022/12/17 23:47:45;;;;;;;11.88;7.75;;;;;;;-1.85;67.10;100398.81;5109258;28;20055;-72
2022/12/17 23:50:13;;;;;;;11.38;8.63;;;;;;;-0.65;67.10;100613.44;5093001;28;20058;-72
2022/12/17 23:52:40;;;;;;;11.65;8.00;;;;;;;-0.63;67.23;100610.84;5092958;28;20044;-72
2022/12/17 23:55:09;;;;;;;10.30;7.32;;;;;;;-0.63;67.18;100603.91;5108812;28;20044;-72
2022/12/17 23:57:38;;;;;;;8.52;6.95;;;;;;;-0.65;67.16;100617.75;5108887;28;20044;-72
